sensor_id;sensor_type;location;lat;lon;timestamp;P1;durP1;ratioP1;P2;durP2;ratioP2
14907;SDS011;7545;52.092;7.006;2022-09-09T00:04:28;2.80;;;0.98;;
14907;SDS011;7545;52.092;7.006;2022-09-09T00:09:46;1.35;;;0.73;;
14907;SDS011;7545;52.092;7.006;2022-09-09T00:12:27;2.33;;;0.55;;
14907;SDS011;7545;52.092;7.006;2022-09-09T00:15:20;1.25;;;0.60;;
14907;SDS011;7545;52.092;7.006;2022-09-09T00:20:39;2.38;;;0.60;;
14907;SDS011;7545;52.092;7.006;2022-09-09T00:28:26;2.45;;;0.93;;
14907;SDS011;7545;52.092;7.006;2022-09-09T00:30:54;1.33;;;0.90;;
14907;SDS011;7545;52.092;7.006;2022-09-09T00:33:22;1.58;;;0.70;;
14907;SDS011;7545;52.092;7.006;2022-09-09T00:35:58;1.00;;;0.80;;
14907;SDS011;7545;52.092;7.006;2022-09-09T00:38:33;1.27;;;0.65;;
14907;SDS011;7545;52.092;7.006;2022-09-09T00:41:06;2.90;;;0.88;;
14907;SDS011;7545;52.092;7.006;2022-09-09T00:44:00;2.60;;;1.00;;
14907;SDS011;7545;52.092;7.006;2022-09-09T00:57:30;2.63;;;0.93;;
14907;SDS011;7545;52.092;7.006;2022-09-09T01:07:57;1.13;;;0.80;;
14907;SDS011;7545;52.092;7.006;2022-09-09T01:13:29;0.80;;;0.70;;
14907;SDS011;7545;52.092;7.006;2022-09-09T01:15:56;1.10;;;0.50;;
14907;SDS011;7545;52.092;7.006;2022-09-09T01:18:34;0.85;;;0.55;;
14907;SDS011;7545;52.092;7.006;2022-09-09T01:24:03;3.42;;;0.68;;
14907;SDS011;7545;52.092;7.006;2022-09-09T01:26:42;2.17;;;0.90;;
14907;SDS011;7545;52.092;7.006;2022-09-09T01:29:11;1.08;;;0.73;;
14907;SDS011;7545;52.092;7.006;2022-09-09T01:31:39;0.95;;;0.60;;
14907;SDS011;7545;52.092;7.006;2022-09-09T01:34:14;1.30;;;0.77;;
14907;SDS011;7545;52.092;7.006;2022-09-09T01:36:44;0.88;;;0.80;;
14907;SDS011;7545;52.092;7.006;2022-09-09T01:39:11;1.13;;;0.80;;
14907;SDS011;7545;52.092;7.006;2022-09-09T01:41:38;1.90;;;0.80;;
14907;SDS011;7545;52.092;7.006;2022-09-09T01:44:03;2.40;;;1.00;;
14907;SDS011;7545;52.092;7.006;2022-09-09T01:46:31;1.58;;;0.90;;
14907;SDS011;7545;52.092;7.006;2022-09-09T01:48:56;1.40;;;1.02;;
14907;SDS011;7545;52.092;7.006;2022-09-09T01:51:23;2.85;;;1.20;;
14907;SDS011;7545;52.092;7.006;2022-09-09T01:53:49;2.38;;;1.10;;
14907;SDS011;7545;52.092;7.006;2022-09-09T02:04:23;1.48;;;0.82;;
14907;SDS011;7545;52.092;7.006;2022-09-09T02:07:00;1.50;;;1.30;;
14907;SDS011;7545;52.092;7.006;2022-09-09T02:09:26;0.88;;;0.73;;
14907;SDS011;7545;52.092;7.006;2022-09-09T02:12:00;3.00;;;1.13;;
14907;SDS011;7545;52.092;7.006;2022-09-09T02:14:34;1.52;;;1.00;;
14907;SDS011;7545;52.092;7.006;2022-09-09T02:17:08;2.22;;;0.98;;
14907;SDS011;7545;52.092;7.006;2022-09-09T02:19:39;1.73;;;1.13;;
14907;SDS011;7545;52.092;7.006;2022-09-09T02:22:11;1.88;;;0.90;;
14907;SDS011;7545;52.092;7.006;2022-09-09T02:24:39;1.00;;;0.85;;
14907;SDS011;7545;52.092;7.006;2022-09-09T02:27:06;1.30;;;1.00;;
14907;SDS011;7545;52.092;7.006;2022-09-09T02:29:38;1.20;;;1.10;;
14907;SDS011;7545;52.092;7.006;2022-09-09T02:32:14;1.48;;;1.15;;
14907;SDS011;7545;52.092;7.006;2022-09-09T02:34:48;1.15;;;0.80;;
14907;SDS011;7545;52.092;7.006;2022-09-09T02:37:20;6.13;;;1.35;;
14907;SDS011;7545;52.092;7.006;2022-09-09T02:39:50;1.05;;;0.88;;
14907;SDS011;7545;52.092;7.006;2022-09-09T02:42:16;2.53;;;1.23;;
14907;SDS011;7545;52.092;7.006;2022-09-09T02:44:42;1.55;;;1.05;;
14907;SDS011;7545;52.092;7.006;2022-09-09T02:47:15;1.42;;;0.95;;
14907;SDS011;7545;52.092;7.006;2022-09-09T02:52:22;1.73;;;1.23;;
14907;SDS011;7545;52.092;7.006;2022-09-09T02:54:57;2.05;;;1.10;;
14907;SDS011;7545;52.092;7.006;2022-09-09T02:57:29;1.30;;;1.20;;
14907;SDS011;7545;52.092;7.006;2022-09-09T02:59:58;2.47;;;1.02;;
14907;SDS011;7545;52.092;7.006;2022-09-09T03:02:24;1.38;;;1.27;;
14907;SDS011;7545;52.092;7.006;2022-09-09T03:04:50;1.98;;;1.20;;
14907;SDS011;7545;52.092;7.006;2022-09-09T03:07:17;4.03;;;2.00;;
14907;SDS011;7545;52.092;7.006;2022-09-09T03:09:43;3.08;;;1.77;;
14907;SDS011;7545;52.092;7.006;2022-09-09T03:12:09;3.05;;;1.88;;
14907;SDS011;7545;52.092;7.006;2022-09-09T03:14:36;3.67;;;2.13;;
14907;SDS011;7545;52.092;7.006;2022-09-09T03:17:03;3.83;;;2.00;;
14907;SDS011;7545;52.092;7.006;2022-09-09T03:19:29;2.22;;;1.85;;
14907;SDS011;7545;52.092;7.006;2022-09-09T03:21:55;3.22;;;2.15;;
14907;SDS011;7545;52.092;7.006;2022-09-09T03:24:21;2.95;;;2.72;;
14907;SDS011;7545;52.092;7.006;2022-09-09T03:26:47;5.15;;;3.10;;
14907;SDS011;7545;52.092;7.006;2022-09-09T03:29:15;4.90;;;2.60;;
14907;SDS011;7545;52.092;7.006;2022-09-09T03:31:42;5.47;;;2.75;;
14907;SDS011;7545;52.092;7.006;2022-09-09T03:34:08;3.05;;;2.35;;
14907;SDS011;7545;52.092;7.006;2022-09-09T03:36:33;3.95;;;2.47;;
14907;SDS011;7545;52.092;7.006;2022-09-09T03:38:59;5.47;;;2.65;;
14907;SDS011;7545;52.092;7.006;2022-09-09T03:41:26;4.78;;;2.92;;
14907;SDS011;7545;52.092;7.006;2022-09-09T03:43:52;5.07;;;3.38;;
14907;SDS011;7545;52.092;7.006;2022-09-09T03:46:19;4.30;;;2.90;;
14907;SDS011;7545;52.092;7.006;2022-09-09T03:48:46;3.03;;;2.25;;
14907;SDS011;7545;52.092;7.006;2022-09-09T03:51:12;3.00;;;2.53;;
14907;SDS011;7545;52.092;7.006;2022-09-09T03:53:38;5.03;;;2.83;;
14907;SDS011;7545;52.092;7.006;2022-09-09T03:56:04;4.32;;;2.78;;
14907;SDS011;7545;52.092;7.006;2022-09-09T03:58:31;4.68;;;2.80;;
14907;SDS011;7545;52.092;7.006;2022-09-09T04:01:05;3.47;;;2.38;;
14907;SDS011;7545;52.092;7.006;2022-09-09T04:03:33;4.90;;;2.88;;
14907;SDS011;7545;52.092;7.006;2022-09-09T04:06:00;4.43;;;2.47;;
14907;SDS011;7545;52.092;7.006;2022-09-09T04:08:28;3.33;;;2.95;;
14907;SDS011;7545;52.092;7.006;2022-09-09T04:10:56;2.92;;;2.30;;
14907;SDS011;7545;52.092;7.006;2022-09-09T04:13:23;3.50;;;3.20;;
14907;SDS011;7545;52.092;7.006;2022-09-09T04:15:53;3.80;;;2.20;;
14907;SDS011;7545;52.092;7.006;2022-09-09T04:18:20;5.47;;;2.53;;
14907;SDS011;7545;52.092;7.006;2022-09-09T04:20:47;2.95;;;2.35;;
14907;SDS011;7545;52.092;7.006;2022-09-09T04:23:13;5.95;;;2.95;;
14907;SDS011;7545;52.092;7.006;2022-09-09T04:25:43;5.07;;;2.63;;
14907;SDS011;7545;52.092;7.006;2022-09-09T04:28:13;2.60;;;2.40;;
14907;SDS011;7545;52.092;7.006;2022-09-09T04:30:40;4.85;;;2.65;;
14907;SDS011;7545;52.092;7.006;2022-09-09T04:33:06;4.50;;;2.72;;
14907;SDS011;7545;52.092;7.006;2022-09-09T04:35:32;6.78;;;4.50;;
14907;SDS011;7545;52.092;7.006;2022-09-09T04:37:58;4.57;;;2.33;;
14907;SDS011;7545;52.092;7.006;2022-09-09T04:40:24;4.70;;;2.85;;
14907;SDS011;7545;52.092;7.006;2022-09-09T04:42:50;3.80;;;2.38;;
14907;SDS011;7545;52.092;7.006;2022-09-09T04:45:16;3.47;;;2.35;;
14907;SDS011;7545;52.092;7.006;2022-09-09T04:47:42;3.70;;;2.08;;
14907;SDS011;7545;52.092;7.006;2022-09-09T04:50:08;3.03;;;2.05;;
14907;SDS011;7545;52.092;7.006;2022-09-09T04:52:36;3.00;;;2.08;;
14907;SDS011;7545;52.092;7.006;2022-09-09T04:55:02;7.70;;;2.15;;
14907;SDS011;7545;52.092;7.006;2022-09-09T04:57:29;5.80;;;2.75;;
14907;SDS011;7545;52.092;7.006;2022-09-09T04:59:56;5.07;;;2.30;;
14907;SDS011;7545;52.092;7.006;2022-09-09T05:02:22;7.90;;;2.53;;
14907;SDS011;7545;52.092;7.006;2022-09-09T05:04:48;3.97;;;2.20;;
14907;SDS011;7545;52.092;7.006;2022-09-09T05:07:14;2.33;;;1.85;;
14907;SDS011;7545;52.092;7.006;2022-09-09T05:09:40;4.10;;;2.60;;
14907;SDS011;7545;52.092;7.006;2022-09-09T05:12:06;4.78;;;2.40;;
14907;SDS011;7545;52.092;7.006;2022-09-09T05:14:33;5.47;;;2.03;;
14907;SDS011;7545;52.092;7.006;2022-09-09T05:17:01;2.58;;;2.00;;
14907;SDS011;7545;52.092;7.006;2022-09-09T05:19:26;4.38;;;2.25;;
14907;SDS011;7545;52.092;7.006;2022-09-09T05:21:52;4.57;;;2.40;;
14907;SDS011;7545;52.092;7.006;2022-09-09T05:24:18;6.15;;;2.90;;
14907;SDS011;7545;52.092;7.006;2022-09-09T05:26:43;4.88;;;2.80;;
14907;SDS011;7545;52.092;7.006;2022-09-09T05:29:09;7.05;;;2.80;;
14907;SDS011;7545;52.092;7.006;2022-09-09T05:31:35;3.63;;;2.35;;
14907;SDS011;7545;52.092;7.006;2022-09-09T05:34:00;4.10;;;2.97;;
14907;SDS011;7545;52.092;7.006;2022-09-09T05:36:26;5.25;;;2.65;;
14907;SDS011;7545;52.092;7.006;2022-09-09T05:38:51;6.95;;;2.95;;
14907;SDS011;7545;52.092;7.006;2022-09-09T05:41:20;4.25;;;2.53;;
14907;SDS011;7545;52.092;7.006;2022-09-09T05:43:47;4.53;;;2.33;;
14907;SDS011;7545;52.092;7.006;2022-09-09T05:46:18;5.40;;;2.60;;
14907;SDS011;7545;52.092;7.006;2022-09-09T05:48:45;2.88;;;2.08;;
14907;SDS011;7545;52.092;7.006;2022-09-09T05:51:13;4.18;;;2.30;;
14907;SDS011;7545;52.092;7.006;2022-09-09T05:53:40;8.15;;;2.50;;
14907;SDS011;7545;52.092;7.006;2022-09-09T05:56:08;3.60;;;1.85;;
14907;SDS011;7545;52.092;7.006;2022-09-09T05:58:35;5.57;;;2.60;;
14907;SDS011;7545;52.092;7.006;2022-09-09T06:03:35;3.17;;;2.40;;
14907;SDS011;7545;52.092;7.006;2022-09-09T06:06:02;6.68;;;2.60;;
14907;SDS011;7545;52.092;7.006;2022-09-09T06:08:30;6.85;;;2.28;;
14907;SDS011;7545;52.092;7.006;2022-09-09T06:11:03;2.53;;;1.67;;
14907;SDS011;7545;52.092;7.006;2022-09-09T06:13:30;5.32;;;2.47;;
14907;SDS011;7545;52.092;7.006;2022-09-09T06:15:56;7.43;;;2.22;;
14907;SDS011;7545;52.092;7.006;2022-09-09T06:18:23;3.88;;;1.80;;
14907;SDS011;7545;52.092;7.006;2022-09-09T06:20:53;4.15;;;1.77;;
14907;SDS011;7545;52.092;7.006;2022-09-09T06:23:23;5.30;;;2.22;;
14907;SDS011;7545;52.092;7.006;2022-09-09T06:25:50;3.88;;;1.65;;
14907;SDS011;7545;52.092;7.006;2022-09-09T06:28:16;6.38;;;2.00;;
14907;SDS011;7545;52.092;7.006;2022-09-09T06:30:43;3.03;;;1.85;;
14907;SDS011;7545;52.092;7.006;2022-09-09T06:33:09;5.07;;;1.92;;
14907;SDS011;7545;52.092;7.006;2022-09-09T06:35:35;2.75;;;1.60;;
14907;SDS011;7545;52.092;7.006;2022-09-09T06:38:01;5.57;;;1.90;;
14907;SDS011;7545;52.092;7.006;2022-09-09T06:40:26;5.55;;;1.95;;
14907;SDS011;7545;52.092;7.006;2022-09-09T06:42:52;2.92;;;1.58;;
14907;SDS011;7545;52.092;7.006;2022-09-09T06:45:18;4.93;;;1.73;;
14907;SDS011;7545;52.092;7.006;2022-09-09T06:47:43;7.10;;;2.10;;
14907;SDS011;7545;52.092;7.006;2022-09-09T06:50:09;3.90;;;1.63;;
14907;SDS011;7545;52.092;7.006;2022-09-09T06:52:36;5.72;;;1.77;;
14907;SDS011;7545;52.092;7.006;2022-09-09T06:55:01;5.65;;;1.85;;
14907;SDS011;7545;52.092;7.006;2022-09-09T06:57:27;3.80;;;2.13;;
14907;SDS011;7545;52.092;7.006;2022-09-09T06:59:53;4.57;;;2.30;;
14907;SDS011;7545;52.092;7.006;2022-09-09T07:02:19;3.22;;;1.90;;
14907;SDS011;7545;52.092;7.006;2022-09-09T07:04:45;3.53;;;1.88;;
14907;SDS011;7545;52.092;7.006;2022-09-09T07:07:10;3.45;;;1.25;;
14907;SDS011;7545;52.092;7.006;2022-09-09T07:09:38;4.95;;;1.80;;
14907;SDS011;7545;52.092;7.006;2022-09-09T07:12:05;2.65;;;1.40;;
14907;SDS011;7545;52.092;7.006;2022-09-09T07:14:31;5.40;;;1.80;;
14907;SDS011;7545;52.092;7.006;2022-09-09T07:16:58;2.20;;;1.48;;
14907;SDS011;7545;52.092;7.006;2022-09-09T07:19:25;6.50;;;2.28;;
14907;SDS011;7545;52.092;7.006;2022-09-09T07:21:50;4.68;;;1.67;;
14907;SDS011;7545;52.092;7.006;2022-09-09T07:24:16;4.70;;;1.25;;
14907;SDS011;7545;52.092;7.006;2022-09-09T07:26:42;3.92;;;1.83;;
14907;SDS011;7545;52.092;7.006;2022-09-09T07:29:09;6.03;;;2.10;;
14907;SDS011;7545;52.092;7.006;2022-09-09T07:31:35;4.68;;;1.88;;
14907;SDS011;7545;52.092;7.006;2022-09-09T07:34:03;6.05;;;1.45;;
14907;SDS011;7545;52.092;7.006;2022-09-09T07:36:38;4.55;;;1.30;;
14907;SDS011;7545;52.092;7.006;2022-09-09T07:39:12;4.38;;;1.70;;
14907;SDS011;7545;52.092;7.006;2022-09-09T07:41:39;3.28;;;1.38;;
14907;SDS011;7545;52.092;7.006;2022-09-09T07:44:08;5.30;;;1.60;;
14907;SDS011;7545;52.092;7.006;2022-09-09T07:46:37;6.88;;;1.30;;
14907;SDS011;7545;52.092;7.006;2022-09-09T07:49:07;4.60;;;2.13;;
14907;SDS011;7545;52.092;7.006;2022-09-09T07:51:34;3.08;;;1.75;;
14907;SDS011;7545;52.092;7.006;2022-09-09T07:54:03;4.22;;;1.63;;
14907;SDS011;7545;52.092;7.006;2022-09-09T07:56:31;3.20;;;1.45;;
14907;SDS011;7545;52.092;7.006;2022-09-09T07:58:58;4.63;;;1.45;;
14907;SDS011;7545;52.092;7.006;2022-09-09T08:01:31;7.05;;;1.45;;
14907;SDS011;7545;52.092;7.006;2022-09-09T08:04:00;5.97;;;1.83;;
14907;SDS011;7545;52.092;7.006;2022-09-09T08:06:28;4.47;;;1.80;;
14907;SDS011;7545;52.092;7.006;2022-09-09T08:08:57;2.95;;;1.42;;
14907;SDS011;7545;52.092;7.006;2022-09-09T08:11:24;4.47;;;1.50;;
14907;SDS011;7545;52.092;7.006;2022-09-09T08:13:52;3.45;;;1.58;;
14907;SDS011;7545;52.092;7.006;2022-09-09T08:16:19;4.43;;;2.17;;
14907;SDS011;7545;52.092;7.006;2022-09-09T08:18:49;6.53;;;1.75;;
14907;SDS011;7545;52.092;7.006;2022-09-09T08:21:20;5.53;;;1.88;;
14907;SDS011;7545;52.092;7.006;2022-09-09T08:23:49;5.18;;;1.55;;
14907;SDS011;7545;52.092;7.006;2022-09-09T08:26:18;6.18;;;1.58;;
14907;SDS011;7545;52.092;7.006;2022-09-09T08:28:48;5.20;;;1.80;;
14907;SDS011;7545;52.092;7.006;2022-09-09T08:31:19;8.93;;;1.50;;
14907;SDS011;7545;52.092;7.006;2022-09-09T08:33:47;5.47;;;2.15;;
14907;SDS011;7545;52.092;7.006;2022-09-09T08:36:14;7.35;;;1.73;;
14907;SDS011;7545;52.092;7.006;2022-09-09T08:38:41;6.55;;;1.58;;
14907;SDS011;7545;52.092;7.006;2022-09-09T08:43:51;5.38;;;1.70;;
14907;SDS011;7545;52.092;7.006;2022-09-09T08:46:32;7.72;;;1.83;;
14907;SDS011;7545;52.092;7.006;2022-09-09T08:49:07;5.78;;;1.63;;
14907;SDS011;7545;52.092;7.006;2022-09-09T08:51:41;5.03;;;1.75;;
14907;SDS011;7545;52.092;7.006;2022-09-09T08:54:07;5.18;;;1.50;;
14907;SDS011;7545;52.092;7.006;2022-09-09T08:56:35;3.20;;;1.60;;
14907;SDS011;7545;52.092;7.006;2022-09-09T08:59:01;5.22;;;1.55;;
14907;SDS011;7545;52.092;7.006;2022-09-09T09:09:42;3.75;;;1.33;;
14907;SDS011;7545;52.092;7.006;2022-09-09T09:12:16;4.47;;;1.05;;
14907;SDS011;7545;52.092;7.006;2022-09-09T09:14:46;4.80;;;1.65;;
14907;SDS011;7545;52.092;7.006;2022-09-09T09:17:20;5.22;;;1.30;;
14907;SDS011;7545;52.092;7.006;2022-09-09T09:19:48;6.95;;;1.55;;
14907;SDS011;7545;52.092;7.006;2022-09-09T09:27:38;2.97;;;1.02;;
14907;SDS011;7545;52.092;7.006;2022-09-09T09:30:19;3.60;;;1.40;;
14907;SDS011;7545;52.092;7.006;2022-09-09T09:32:52;4.70;;;1.05;;
14907;SDS011;7545;52.092;7.006;2022-09-09T09:35:20;3.05;;;1.15;;
14907;SDS011;7545;52.092;7.006;2022-09-09T09:37:46;5.53;;;1.45;;
14907;SDS011;7545;52.092;7.006;2022-09-09T09:40:14;3.20;;;1.40;;
14907;SDS011;7545;52.092;7.006;2022-09-09T09:42:57;5.35;;;1.15;;
14907;SDS011;7545;52.092;7.006;2022-09-09T09:45:26;3.63;;;1.13;;
14907;SDS011;7545;52.092;7.006;2022-09-09T09:48:01;4.25;;;1.27;;
14907;SDS011;7545;52.092;7.006;2022-09-09T09:50:32;4.35;;;1.17;;
14907;SDS011;7545;52.092;7.006;2022-09-09T09:53:04;3.45;;;0.77;;
14907;SDS011;7545;52.092;7.006;2022-09-09T09:55:46;6.05;;;1.48;;
14907;SDS011;7545;52.092;7.006;2022-09-09T09:58:18;6.10;;;1.02;;
14907;SDS011;7545;52.092;7.006;2022-09-09T10:00:51;2.63;;;1.15;;
14907;SDS011;7545;52.092;7.006;2022-09-09T10:03:26;5.30;;;1.10;;
14907;SDS011;7545;52.092;7.006;2022-09-09T10:05:53;5.10;;;1.30;;
14907;SDS011;7545;52.092;7.006;2022-09-09T10:08:21;5.15;;;1.00;;
14907;SDS011;7545;52.092;7.006;2022-09-09T10:19:04;3.28;;;1.10;;
14907;SDS011;7545;52.092;7.006;2022-09-09T10:26:49;2.47;;;0.80;;
14907;SDS011;7545;52.092;7.006;2022-09-09T10:32:48;2.83;;;1.45;;
14907;SDS011;7545;52.092;7.006;2022-09-09T10:38:37;3.97;;;0.90;;
14907;SDS011;7545;52.092;7.006;2022-09-09T10:43:46;2.70;;;1.08;;
14907;SDS011;7545;52.092;7.006;2022-09-09T10:49:32;4.53;;;0.73;;
14907;SDS011;7545;52.092;7.006;2022-09-09T10:55:00;3.17;;;1.10;;
14907;SDS011;7545;52.092;7.006;2022-09-09T10:57:39;3.72;;;1.10;;
14907;SDS011;7545;52.092;7.006;2022-09-09T11:02:44;2.83;;;0.80;;
14907;SDS011;7545;52.092;7.006;2022-09-09T11:05:19;6.05;;;1.20;;
14907;SDS011;7545;52.092;7.006;2022-09-09T11:10:21;3.80;;;1.17;;
14907;SDS011;7545;52.092;7.006;2022-09-09T11:12:49;1.90;;;0.82;;
14907;SDS011;7545;52.092;7.006;2022-09-09T11:18:19;1.70;;;0.77;;
14907;SDS011;7545;52.092;7.006;2022-09-09T11:20:47;1.55;;;0.65;;
14907;SDS011;7545;52.092;7.006;2022-09-09T11:23:26;1.58;;;0.80;;
14907;SDS011;7545;52.092;7.006;2022-09-09T11:25:59;4.72;;;1.15;;
14907;SDS011;7545;52.092;7.006;2022-09-09T11:33:55;2.78;;;0.93;;
14907;SDS011;7545;52.092;7.006;2022-09-09T11:44:53;2.13;;;0.82;;
14907;SDS011;7545;52.092;7.006;2022-09-09T11:47:29;6.72;;;1.90;;
14907;SDS011;7545;52.092;7.006;2022-09-09T11:50:09;3.25;;;1.15;;
14907;SDS011;7545;52.092;7.006;2022-09-09T11:55:47;1.73;;;0.77;;
14907;SDS011;7545;52.092;7.006;2022-09-09T11:58:25;1.15;;;0.60;;
14907;SDS011;7545;52.092;7.006;2022-09-09T12:00:52;1.08;;;0.57;;
14907;SDS011;7545;52.092;7.006;2022-09-09T12:06:32;2.15;;;1.10;;
14907;SDS011;7545;52.092;7.006;2022-09-09T12:09:05;3.42;;;1.00;;
14907;SDS011;7545;52.092;7.006;2022-09-09T12:11:43;4.93;;;1.33;;
14907;SDS011;7545;52.092;7.006;2022-09-09T12:14:19;5.03;;;1.55;;
14907;SDS011;7545;52.092;7.006;2022-09-09T12:17:08;1.88;;;0.80;;
14907;SDS011;7545;52.092;7.006;2022-09-09T12:19:47;5.32;;;1.10;;
14907;SDS011;7545;52.092;7.006;2022-09-09T12:22:35;6.10;;;1.02;;
14907;SDS011;7545;52.092;7.006;2022-09-09T12:28:00;3.45;;;1.00;;
14907;SDS011;7545;52.092;7.006;2022-09-09T12:30:40;2.40;;;0.63;;
14907;SDS011;7545;52.092;7.006;2022-09-09T12:33:21;2.75;;;1.15;;
14907;SDS011;7545;52.092;7.006;2022-09-09T12:35:53;2.10;;;0.77;;
14907;SDS011;7545;52.092;7.006;2022-09-09T12:38:27;4.22;;;0.98;;
14907;SDS011;7545;52.092;7.006;2022-09-09T12:40:59;4.80;;;1.10;;
14907;SDS011;7545;52.092;7.006;2022-09-09T12:43:25;2.60;;;1.05;;
14907;SDS011;7545;52.092;7.006;2022-09-09T12:45:59;2.60;;;0.85;;
14907;SDS011;7545;52.092;7.006;2022-09-09T12:48:30;3.45;;;0.80;;
14907;SDS011;7545;52.092;7.006;2022-09-09T12:50:59;4.88;;;1.10;;
14907;SDS011;7545;52.092;7.006;2022-09-09T12:53:30;2.00;;;0.70;;
14907;SDS011;7545;52.092;7.006;2022-09-09T12:56:00;2.72;;;0.82;;
14907;SDS011;7545;52.092;7.006;2022-09-09T12:58:29;1.23;;;0.90;;
14907;SDS011;7545;52.092;7.006;2022-09-09T13:01:00;2.10;;;0.77;;
14907;SDS011;7545;52.092;7.006;2022-09-09T13:03:30;4.25;;;1.40;;
14907;SDS011;7545;52.092;7.006;2022-09-09T13:05:57;3.80;;;1.08;;
14907;SDS011;7545;52.092;7.006;2022-09-09T13:08:34;1.73;;;1.00;;
14907;SDS011;7545;52.092;7.006;2022-09-09T13:11:01;2.20;;;0.80;;
14907;SDS011;7545;52.092;7.006;2022-09-09T13:13:36;1.55;;;0.60;;
14907;SDS011;7545;52.092;7.006;2022-09-09T13:16:03;3.17;;;0.95;;
14907;SDS011;7545;52.092;7.006;2022-09-09T13:18:36;4.30;;;1.10;;
14907;SDS011;7545;52.092;7.006;2022-09-09T13:21:05;2.40;;;1.48;;
14907;SDS011;7545;52.092;7.006;2022-09-09T13:23:35;2.58;;;0.90;;
14907;SDS011;7545;52.092;7.006;2022-09-09T13:26:03;2.17;;;0.90;;
14907;SDS011;7545;52.092;7.006;2022-09-09T13:28:31;2.50;;;0.90;;
14907;SDS011;7545;52.092;7.006;2022-09-09T13:36:09;1.83;;;0.93;;
14907;SDS011;7545;52.092;7.006;2022-09-09T13:38:38;1.15;;;0.98;;
14907;SDS011;7545;52.092;7.006;2022-09-09T13:41:06;4.88;;;1.23;;
14907;SDS011;7545;52.092;7.006;2022-09-09T13:43:44;3.38;;;0.73;;
14907;SDS011;7545;52.092;7.006;2022-09-09T13:51:36;1.05;;;0.60;;
14907;SDS011;7545;52.092;7.006;2022-09-09T13:54:09;1.75;;;0.68;;
14907;SDS011;7545;52.092;7.006;2022-09-09T13:56:36;2.10;;;0.93;;
14907;SDS011;7545;52.092;7.006;2022-09-09T13:59:04;2.75;;;0.80;;
14907;SDS011;7545;52.092;7.006;2022-09-09T14:01:31;2.22;;;0.88;;
14907;SDS011;7545;52.092;7.006;2022-09-09T14:03:57;0.90;;;0.60;;
14907;SDS011;7545;52.092;7.006;2022-09-09T14:06:23;2.05;;;1.15;;
14907;SDS011;7545;52.092;7.006;2022-09-09T14:08:49;2.53;;;0.82;;
14907;SDS011;7545;52.092;7.006;2022-09-09T14:11:15;3.22;;;1.08;;
14907;SDS011;7545;52.092;7.006;2022-09-09T14:13:42;1.33;;;0.50;;
14907;SDS011;7545;52.092;7.006;2022-09-09T14:16:07;1.70;;;0.70;;
14907;SDS011;7545;52.092;7.006;2022-09-09T14:18:33;1.23;;;0.82;;
14907;SDS011;7545;52.092;7.006;2022-09-09T14:20:59;2.95;;;1.10;;
14907;SDS011;7545;52.092;7.006;2022-09-09T14:23:25;2.63;;;1.23;;
14907;SDS011;7545;52.092;7.006;2022-09-09T14:25:51;3.22;;;0.80;;
14907;SDS011;7545;52.092;7.006;2022-09-09T14:28:17;1.00;;;0.80;;
14907;SDS011;7545;52.092;7.006;2022-09-09T14:30:43;1.38;;;1.02;;
14907;SDS011;7545;52.092;7.006;2022-09-09T14:33:10;1.70;;;0.93;;
14907;SDS011;7545;52.092;7.006;2022-09-09T14:35:38;1.10;;;0.70;;
14907;SDS011;7545;52.092;7.006;2022-09-09T14:38:04;2.55;;;1.08;;
14907;SDS011;7545;52.092;7.006;2022-09-09T14:40:30;3.10;;;1.15;;
14907;SDS011;7545;52.092;7.006;2022-09-09T14:42:55;2.58;;;1.13;;
14907;SDS011;7545;52.092;7.006;2022-09-09T14:45:22;3.40;;;0.98;;
14907;SDS011;7545;52.092;7.006;2022-09-09T14:47:49;2.20;;;1.00;;
14907;SDS011;7545;52.092;7.006;2022-09-09T14:50:16;2.22;;;0.90;;
14907;SDS011;7545;52.092;7.006;2022-09-09T14:52:42;3.30;;;1.00;;
14907;SDS011;7545;52.092;7.006;2022-09-09T14:55:08;3.88;;;1.20;;
14907;SDS011;7545;52.092;7.006;2022-09-09T14:57:34;2.10;;;1.50;;
14907;SDS011;7545;52.092;7.006;2022-09-09T15:00:00;2.75;;;1.02;;
14907;SDS011;7545;52.092;7.006;2022-09-09T15:02:28;3.25;;;1.10;;
14907;SDS011;7545;52.092;7.006;2022-09-09T15:04:54;2.53;;;1.10;;
14907;SDS011;7545;52.092;7.006;2022-09-09T15:07:23;2.58;;;1.20;;
14907;SDS011;7545;52.092;7.006;2022-09-09T15:09:49;4.88;;;0.98;;
14907;SDS011;7545;52.092;7.006;2022-09-09T15:12:15;3.03;;;1.10;;
14907;SDS011;7545;52.092;7.006;2022-09-09T15:14:43;3.60;;;1.25;;
14907;SDS011;7545;52.092;7.006;2022-09-09T15:17:09;3.47;;;1.20;;
14907;SDS011;7545;52.092;7.006;2022-09-09T15:19:36;2.85;;;1.23;;
14907;SDS011;7545;52.092;7.006;2022-09-09T15:22:02;1.92;;;1.20;;
14907;SDS011;7545;52.092;7.006;2022-09-09T15:24:28;3.17;;;1.10;;
14907;SDS011;7545;52.092;7.006;2022-09-09T15:26:53;4.35;;;1.30;;
14907;SDS011;7545;52.092;7.006;2022-09-09T15:29:19;8.52;;;2.75;;
14907;SDS011;7545;52.092;7.006;2022-09-09T15:31:45;2.90;;;1.23;;
14907;SDS011;7545;52.092;7.006;2022-09-09T15:34:11;2.95;;;1.05;;
14907;SDS011;7545;52.092;7.006;2022-09-09T15:36:42;1.15;;;0.82;;
14907;SDS011;7545;52.092;7.006;2022-09-09T15:39:10;2.83;;;1.30;;
14907;SDS011;7545;52.092;7.006;2022-09-09T15:41:37;2.40;;;1.45;;
14907;SDS011;7545;52.092;7.006;2022-09-09T15:44:04;2.42;;;1.15;;
14907;SDS011;7545;52.092;7.006;2022-09-09T15:51:37;0.90;;;0.80;;
14907;SDS011;7545;52.092;7.006;2022-09-09T15:54:05;2.13;;;1.17;;
14907;SDS011;7545;52.092;7.006;2022-09-09T15:56:31;3.60;;;1.10;;
14907;SDS011;7545;52.092;7.006;2022-09-09T15:58:57;4.13;;;1.50;;
14907;SDS011;7545;52.092;7.006;2022-09-09T16:01:25;3.15;;;1.20;;
14907;SDS011;7545;52.092;7.006;2022-09-09T16:03:52;3.08;;;1.23;;
14907;SDS011;7545;52.092;7.006;2022-09-09T16:06:18;2.50;;;1.05;;
14907;SDS011;7545;52.092;7.006;2022-09-09T16:08:47;2.20;;;1.10;;
14907;SDS011;7545;52.092;7.006;2022-09-09T16:11:18;2.67;;;1.67;;
14907;SDS011;7545;52.092;7.006;2022-09-09T16:13:45;3.85;;;1.17;;
14907;SDS011;7545;52.092;7.006;2022-09-09T16:16:13;5.75;;;1.80;;
14907;SDS011;7545;52.092;7.006;2022-09-09T16:18:43;2.85;;;1.10;;
14907;SDS011;7545;52.092;7.006;2022-09-09T16:23:46;1.83;;;0.95;;
14907;SDS011;7545;52.092;7.006;2022-09-09T16:26:14;2.97;;;1.38;;
14907;SDS011;7545;52.092;7.006;2022-09-09T16:28:41;2.95;;;1.58;;
14907;SDS011;7545;52.092;7.006;2022-09-09T16:31:08;3.00;;;1.50;;
14907;SDS011;7545;52.092;7.006;2022-09-09T16:33:35;2.20;;;1.10;;
14907;SDS011;7545;52.092;7.006;2022-09-09T16:36:08;1.95;;;0.90;;
14907;SDS011;7545;52.092;7.006;2022-09-09T16:38:36;2.58;;;1.00;;
14907;SDS011;7545;52.092;7.006;2022-09-09T16:41:02;3.28;;;0.90;;
14907;SDS011;7545;52.092;7.006;2022-09-09T16:43:33;1.55;;;0.70;;
14907;SDS011;7545;52.092;7.006;2022-09-09T16:45:59;3.88;;;1.75;;
14907;SDS011;7545;52.092;7.006;2022-09-09T16:48:31;3.30;;;1.10;;
14907;SDS011;7545;52.092;7.006;2022-09-09T16:51:07;1.42;;;0.63;;
14907;SDS011;7545;52.092;7.006;2022-09-09T16:53:36;1.02;;;0.60;;
14907;SDS011;7545;52.092;7.006;2022-09-09T16:56:05;1.77;;;0.90;;
14907;SDS011;7545;52.092;7.006;2022-09-09T16:58:32;0.88;;;0.40;;
14907;SDS011;7545;52.092;7.006;2022-09-09T17:00:58;3.08;;;0.60;;
14907;SDS011;7545;52.092;7.006;2022-09-09T17:03:24;1.17;;;0.68;;
14907;SDS011;7545;52.092;7.006;2022-09-09T17:05:50;4.68;;;0.88;;
14907;SDS011;7545;52.092;7.006;2022-09-09T17:08:16;1.70;;;0.68;;
14907;SDS011;7545;52.092;7.006;2022-09-09T17:10:42;1.90;;;0.68;;
14907;SDS011;7545;52.092;7.006;2022-09-09T17:13:07;2.85;;;0.90;;
14907;SDS011;7545;52.092;7.006;2022-09-09T17:15:38;1.25;;;0.50;;
14907;SDS011;7545;52.092;7.006;2022-09-09T17:18:07;1.20;;;0.60;;
14907;SDS011;7545;52.092;7.006;2022-09-09T17:20:40;1.48;;;0.68;;
14907;SDS011;7545;52.092;7.006;2022-09-09T17:23:10;2.97;;;0.82;;
14907;SDS011;7545;52.092;7.006;2022-09-09T17:25:36;2.92;;;0.88;;
14907;SDS011;7545;52.092;7.006;2022-09-09T17:28:03;5.57;;;1.10;;
14907;SDS011;7545;52.092;7.006;2022-09-09T17:30:29;2.20;;;1.00;;
14907;SDS011;7545;52.092;7.006;2022-09-09T17:32:59;4.03;;;1.10;;
14907;SDS011;7545;52.092;7.006;2022-09-09T17:35:24;3.72;;;1.15;;
14907;SDS011;7545;52.092;7.006;2022-09-09T17:37:52;1.70;;;1.02;;